Eastern, KY (41622)

3:44 PM EST on December 05, 2016 (GMT -0500)
Middle Creek Battlefield Area | | Change Station

Elev 728 ft 37.66 °N, 82.83 °W | Updated 5 seconds ago

Clear
Clear
47.8 °F
Feels Like 48 °F
N
0.0
Wind Variable Wind from North
Gusts 0.0 mph

Today
High -- | Low -- °F
--% Chance of Precip.
Yesterday
High -- | Low -- °F
Precip. -- in
Pressure 30.02 in
Visibility 10.0 miles
Clouds Clear
Windchill 48 °F
Dew Point 35 °F
Humidity 62%
Rainfall 0.00 in
Snow Depth Not available.
7:31 AM 5:12 PM
Waxing Crescent, 34% visible
METAR KSJS 052030Z AUTO 08004KT 10SM CLR 09/03 A3002 RMK AO2 T00900030
Pressure 30.02 in
Visibility 10.0 miles
Clouds Clear
Windchill 48 °F
Dew Point 35 °F
Humidity 62%
Rainfall 0.00 in
Snow Depth Not available.
7:31 AM 5:12 PM
Waxing Crescent, 34% visible
METAR KSJS 052030Z AUTO 08004KT 10SM CLR 09/03 A3002 RMK AO2 T00900030

10-Day Weather Forecast

Almanac

Astronomy

Dec. 05, 2016 Rise Set
Actual Time
Civil Twilight
Nautical Twilight
Astronomical Twilight
Moon
Length of Visible Light
Length of Day
Tomorrow will be .
, % of the Moon is Illuminated

Today's Extremes

State Highs State Lows

Community

WunderPhotos

Upload Photos

1,955,861 photos uploaded!

WunderBlog® & News

Nearby

Air Quality

  Air Quality AQ Index Pollutant
Not available.

Snow Depth

Station Depth Elevation

Earthquake Activity

City Distance Mag. Time & Date
Minimum magnitude displayed is 2.5.

Coastal Water Temperatures

Place Temperature

Stations

Nearby Weather Stations

Station Location Temp. Windchill Dew Point Humidity Wind Precip. Elev Updated Type
                   

Watches & Warnings

There are currently no watches in effect.